Time;durP1;ratioP1;P1;durP2;ratioP2;P2;SDS_P1;SDS_P2;PMS_P1;PMS_P2;Temp;Humidity;BMP_temperature;BMP_pressure;BME280_temperature;BME280_humidity;BME280_pressure;Samples;Min_cycle;Max_cycle;Signal;HPM_P1;HPM_P2
2023/04/22 00:01:01;;;;;;;11.63;8.60;;;;;;;;;;5112362;28;20306;-79
2023/04/22 00:03:29;;;;;;;9.70;8.37;;;;;;;;;;5112523;28;20194;-79
2023/04/22 00:05:57;;;;;;;8.70;7.80;;;;;;;;;;5112384;28;20227;-79
2023/04/22 00:08:24;;;;;;;8.83;7.90;;;;;;;;;;5112012;28;20240;-77
2023/04/22 00:10:51;;;;;;;9.97;8.30;;;;;;;;;;5112502;28;20580;-78
2023/04/22 00:13:18;;;;;;;11.20;8.57;;;;;;;;;;5112747;28;20194;-78
2023/04/22 00:15:46;;;;;;;8.97;8.07;;;;;;;;;;5112025;28;20201;-79
2023/04/22 00:18:13;;;;;;;10.17;8.67;;;;;;;;;;5112570;28;20204;-79
2023/04/22 00:20:43;;;;;;;9.87;8.87;;;;;;;;;;5112747;28;20200;-78
2023/04/22 00:23:10;;;;;;;9.77;8.63;;;;;;;;;;5111867;28;20290;-78
2023/04/22 00:25:37;;;;;;;9.90;8.90;;;;;;;;;;5112493;28;20289;-77
2023/04/22 00:28:04;;;;;;;9.90;8.80;;;;;;;;;;5112237;28;20688;-79
2023/04/22 00:30:31;;;;;;;10.10;9.10;;;;;;;;;;5112121;28;20233;-78
2023/04/22 00:32:59;;;;;;;10.43;9.33;;;;;;;;;;5112411;28;20208;-78
2023/04/22 00:35:26;;;;;;;10.07;9.07;;;;;;;;;;5112105;28;20291;-79
2023/04/22 00:37:54;;;;;;;9.80;8.80;;;;;;;;;;5111375;28;20655;-79
2023/04/22 00:40:22;;;;;;;10.07;8.63;;;;;;;;;;5112125;28;20276;-78
2023/04/22 00:42:50;;;;;;;10.27;8.97;;;;;;;;;;5112224;28;20326;-78
2023/04/22 00:45:19;;;;;;;10.47;8.50;;;;;;;;;;5111860;28;20300;-78
2023/04/22 00:47:47;;;;;;;10.50;9.17;;;;;;;;;;5111658;28;20649;-78
2023/04/22 00:50:14;;;;;;;9.60;8.60;;;;;;;;;;5112028;28;20292;-78
2023/04/22 00:52:41;;;;;;;11.00;8.90;;;;;;;;;;5111365;28;20299;-78
2023/04/22 00:55:10;;;;;;;8.67;7.83;;;;;;;;;;5111766;28;20194;-77
2023/04/22 00:57:38;;;;;;;10.00;8.20;;;;;;;;;;5112248;28;20646;-78
2023/04/22 01:00:05;;;;;;;9.93;8.93;;;;;;;;;;5111716;28;20387;-78
2023/04/22 01:02:32;;;;;;;10.27;8.80;;;;;;;;;;5111493;28;20320;-77
2023/04/22 01:05:01;;;;;;;9.60;8.07;;;;;;;;;;5111855;28;20194;-78
2023/04/22 01:07:28;;;;;;;9.63;8.43;;;;;;;;;;5111411;28;20706;-79
2023/04/22 01:09:55;;;;;;;9.60;8.40;;;;;;;;;;5112322;28;20204;-79
2023/04/22 01:12:24;;;;;;;9.43;8.47;;;;;;;;;;5111886;28;20288;-77
2023/04/22 01:14:51;;;;;;;9.70;8.17;;;;;;;;;;5111220;28;20661;-78
2023/04/22 01:17:18;;;;;;;9.70;8.70;;;;;;;;;;5111516;28;20192;-78
2023/04/22 01:19:46;;;;;;;9.70;8.70;;;;;;;;;;5111409;28;20196;-78
2023/04/22 01:22:14;;;;;;;11.73;9.30;;;;;;;;;;5111854;28;20229;-77
2023/04/22 01:24:42;;;;;;;9.87;8.83;;;;;;;;;;5111303;28;20769;-79
2023/04/22 01:27:10;;;;;;;10.73;9.47;;;;;;;;;;5114211;28;20599;-79
2023/04/22 01:29:38;;;;;;;10.70;8.87;;;;;;;;;;5116012;28;20208;-79
2023/04/22 01:32:05;;;;;;;11.47;9.23;;;;;;;;;;5115401;28;20291;-79
2023/04/22 01:34:33;;;;;;;11.23;9.83;;;;;;;;;;5115057;28;20276;-77
2023/04/22 01:37:00;;;;;;;12.03;9.63;;;;;;;;;;5115811;28;20232;-79
2023/04/22 01:39:27;;;;;;;10.10;9.07;;;;;;;;;;5115485;28;20201;-79
2023/04/22 01:41:57;;;;;;;10.50;9.17;;;;;;;;;;5115380;28;20237;-79
2023/04/22 01:44:24;;;;;;;11.33;9.90;;;;;;;;;;5115862;28;20190;-80
2023/04/22 01:46:51;;;;;;;11.47;9.37;;;;;;;;;;5115560;28;20219;-78
2023/04/22 01:49:18;;;;;;;10.20;8.87;;;;;;;;;;5114903;28;20244;-78
2023/04/22 01:51:46;;;;;;;10.17;9.10;;;;;;;;;;5115473;28;20292;-78
2023/04/22 01:54:13;;;;;;;10.63;9.10;;;;;;;;;;5115445;28;20223;-78
2023/04/22 01:56:42;;;;;;;12.03;9.43;;;;;;;;;;5115236;28;20315;-78
2023/04/22 01:59:11;;;;;;;10.50;9.40;;;;;;;;;;5115005;28;20279;-79
2023/04/22 02:01:38;;;;;;;11.13;9.27;;;;;;;;;;5115023;28;20217;-78
2023/04/22 02:04:05;;;;;;;11.37;8.83;;;;;;;;;;5115318;28;20288;-78
2023/04/22 02:06:32;;;;;;;11.60;9.10;;;;;;;;;;5115092;28;20292;-79
2023/04/22 02:09:00;;;;;;;11.47;9.63;;;;;;;;;;5115302;28;20292;-79
2023/04/22 02:11:27;;;;;;;11.40;9.10;;;;;;;;;;5115056;28;20194;-78
2023/04/22 02:13:54;;;;;;;11.70;9.27;;;;;;;;;;5114811;28;20297;-78
2023/04/22 02:16:22;;;;;;;10.53;9.00;;;;;;;;;;5114966;28;20288;-79
2023/04/22 02:18:50;;;;;;;10.27;8.87;;;;;;;;;;5101434;28;20306;-79
2023/04/22 02:21:17;;;;;;;9.93;8.90;;;;;;;;;;5103252;28;20304;-78
2023/04/22 02:23:44;;;;;;;10.03;8.87;;;;;;;;;;5103491;28;20323;-78
2023/04/22 02:26:11;;;;;;;10.60;9.50;;;;;;;;;;5115165;28;20292;-78
2023/04/22 02:28:38;;;;;;;11.07;8.90;;;;;;;;;;5114503;28;20296;-78
2023/04/22 02:31:05;;;;;;;10.03;8.93;;;;;;;;;;5113425;28;20288;-79
2023/04/22 02:33:35;;;;;;;11.70;9.20;;;;;;;;;;5113484;28;20203;-79
2023/04/22 02:36:02;;;;;;;10.27;9.13;;;;;;;;;;5112866;28;20190;-78
2023/04/22 02:38:29;;;;;;;11.47;9.33;;;;;;;;;;5113250;28;20236;-78
2023/04/22 02:40:56;;;;;;;10.70;9.60;;;;;;;;;;5114139;28;20706;-79
2023/04/22 02:43:23;;;;;;;10.50;9.37;;;;;;;;;;5113636;28;20680;-78
2023/04/22 02:45:50;;;;;;;10.10;8.67;;;;;;;;;;5114285;28;20283;-79
2023/04/22 02:48:19;;;;;;;9.87;8.87;;;;;;;;;;5113438;28;20189;-78
2023/04/22 02:50:47;;;;;;;10.50;9.40;;;;;;;;;;5114333;28;20866;-79
2023/04/22 02:53:15;;;;;;;10.13;8.80;;;;;;;;;;5114376;28;20200;-78
2023/04/22 02:55:42;;;;;;;10.87;9.00;;;;;;;;;;5113787;28;20233;-78
2023/04/22 02:58:09;;;;;;;11.13;9.20;;;;;;;;;;5114204;28;20189;-78
2023/04/22 03:00:37;;;;;;;11.47;9.90;;;;;;;;;;5113799;28;20198;-77
2023/04/22 03:03:04;;;;;;;10.00;9.00;;;;;;;;;;5113698;28;20321;-79
2023/04/22 03:05:31;;;;;;;10.30;9.13;;;;;;;;;;5113685;28;20662;-78
2023/04/22 03:07:59;;;;;;;11.17;9.47;;;;;;;;;;5113771;28;20765;-78
2023/04/22 03:10:27;;;;;;;10.53;9.43;;;;;;;;;;5113895;28;20198;-78
2023/04/22 03:12:54;;;;;;;10.80;9.70;;;;;;;;;;5113280;28;20296;-79
2023/04/22 03:15:21;;;;;;;10.33;9.23;;;;;;;;;;5113828;28;20198;-78
2023/04/22 03:17:49;;;;;;;11.43;9.53;;;;;;;;;;5113699;28;20891;-79
2023/04/22 03:20:16;;;;;;;11.80;9.67;;;;;;;;;;5113622;28;20194;-78
2023/04/22 03:22:43;;;;;;;10.90;9.23;;;;;;;;;;5113427;28;20321;-78
2023/04/22 03:25:12;;;;;;;11.23;9.27;;;;;;;;;;5113758;28;20285;-79
2023/04/22 03:27:39;;;;;;;10.30;8.90;;;;;;;;;;5113771;28;20254;-78
2023/04/22 03:30:07;;;;;;;10.73;8.93;;;;;;;;;;5112924;28;20305;-79
2023/04/22 03:32:34;;;;;;;10.87;9.73;;;;;;;;;;5113403;28;20223;-79
2023/04/22 03:35:02;;;;;;;10.97;9.23;;;;;;;;;;5113374;28;20202;-78
2023/04/22 03:37:29;;;;;;;12.00;9.23;;;;;;;;;;5113336;28;20289;-79
2023/04/22 03:39:56;;;;;;;10.47;9.37;;;;;;;;;;5112821;28;20294;-77
2023/04/22 03:42:25;;;;;;;11.70;9.57;;;;;;;;;;5113342;28;20670;-79
2023/04/22 03:44:52;;;;;;;10.53;9.07;;;;;;;;;;5112469;28;20231;-79
2023/04/22 03:47:19;;;;;;;10.57;9.47;;;;;;;;;;5113214;28;20197;-78
2023/04/22 03:49:46;;;;;;;10.70;9.43;;;;;;;;;;5112392;28;20205;-78
2023/04/22 03:52:13;;;;;;;10.23;9.23;;;;;;;;;;5112891;28;20287;-77
2023/04/22 03:54:41;;;;;;;11.40;9.10;;;;;;;;;;5112987;28;20221;-79
2023/04/22 03:57:08;;;;;;;10.70;9.57;;;;;;;;;;5112969;28;20678;-78
2023/04/22 03:59:37;;;;;;;9.87;8.87;;;;;;;;;;5112693;28;20225;-77
2023/04/22 04:02:04;;;;;;;10.90;9.80;;;;;;;;;;5109172;28;20285;-79
2023/04/22 04:04:33;;;;;;;10.23;9.13;;;;;;;;;;5105265;28;20244;-78
2023/04/22 04:07:00;;;;;;;10.13;9.03;;;;;;;;;;5113125;28;20197;-78
2023/04/22 04:09:27;;;;;;;10.77;9.47;;;;;;;;;;5092457;28;20212;-78
2023/04/22 04:11:55;;;;;;;10.50;9.37;;;;;;;;;;5091665;28;20654;-79
2023/04/22 04:14:22;;;;;;;11.77;9.30;;;;;;;;;;5106243;28;20202;-78
2023/04/22 04:16:51;;;;;;;11.80;9.50;;;;;;;;;;5112627;28;20189;-79
2023/04/22 04:19:18;;;;;;;11.73;9.23;;;;;;;;;;5112051;28;20535;-79
2023/04/22 04:21:45;;;;;;;10.90;9.57;;;;;;;;;;5112450;28;20650;-78
2023/04/22 04:24:12;;;;;;;12.13;9.73;;;;;;;;;;5112031;28;20233;-78
2023/04/22 04:26:40;;;;;;;11.90;9.60;;;;;;;;;;5112678;28;20631;-78
2023/04/22 04:29:07;;;;;;;11.70;9.77;;;;;;;;;;5112043;28;20201;-79
2023/04/22 04:31:34;;;;;;;10.83;9.73;;;;;;;;;;5112177;28;20193;-78
2023/04/22 04:34:03;;;;;;;10.13;8.77;;;;;;;;;;5112139;28;20276;-79
2023/04/22 04:36:31;;;;;;;10.60;9.50;;;;;;;;;;5112495;28;20293;-78
2023/04/22 04:38:58;;;;;;;11.50;9.63;;;;;;;;;;5111805;28;20575;-79
2023/04/22 04:41:27;;;;;;;12.90;10.10;;;;;;;;;;5111804;28;20240;-79
2023/04/22 04:43:54;;;;;;;11.03;9.43;;;;;;;;;;5111375;28;20716;-79
2023/04/22 04:46:21;;;;;;;11.57;9.77;;;;;;;;;;5111920;28;20771;-79
2023/04/22 04:48:49;;;;;;;11.57;9.67;;;;;;;;;;5111850;28;20204;-79
2023/04/22 04:51:18;;;;;;;10.90;9.63;;;;;;;;;;5111927;28;20194;-79
2023/04/22 04:53:45;;;;;;;11.20;9.50;;;;;;;;;;5112205;28;20204;-79
2023/04/22 04:56:12;;;;;;;11.50;9.50;;;;;;;;;;5111888;28;20288;-78
2023/04/22 04:58:39;;;;;;;11.90;9.73;;;;;;;;;;5111392;28;20197;-78
2023/04/22 05:01:07;;;;;;;10.87;9.77;;;;;;;;;;5111043;28;20196;-77
2023/04/22 05:03:34;;;;;;;11.50;9.87;;;;;;;;;;5111772;28;20259;-78
2023/04/22 05:06:01;;;;;;;10.37;9.33;;;;;;;;;;5111968;28;20280;-79
2023/04/22 05:08:29;;;;;;;11.00;9.80;;;;;;;;;;5112147;28;20200;-79
2023/04/22 05:10:57;;;;;;;11.37;9.83;;;;;;;;;;5111496;28;20699;-78
2023/04/22 05:13:25;;;;;;;10.53;9.43;;;;;;;;;;5111007;28;20728;-78
2023/04/22 05:15:52;;;;;;;11.37;9.17;;;;;;;;;;5112068;28;20194;-78
2023/04/22 05:18:19;;;;;;;10.17;8.93;;;;;;;;;;5111279;28;20227;-80
2023/04/22 05:20:46;;;;;;;13.90;10.00;;;;;;;;;;5111656;28;20278;-79
2023/04/22 05:23:14;;;;;;;10.93;9.33;;;;;;;;;;5111701;28;20316;-79
2023/04/22 05:25:42;;;;;;;10.73;9.63;;;;;;;;;;5111781;28;20292;-79
2023/04/22 05:28:09;;;;;;;11.70;9.80;;;;;;;;;;5111310;28;20633;-79
2023/04/22 05:30:37;;;;;;;13.50;9.87;;;;;;;;;;5111904;28;20277;-78
2023/04/22 05:33:04;;;;;;;13.17;9.60;;;;;;;;;;5110900;28;20292;-79
2023/04/22 05:35:31;;;;;;;11.67;10.47;;;;;;;;;;5111556;28;20920;-78
2023/04/22 05:37:58;;;;;;;11.67;10.03;;;;;;;;;;5111228;28;20733;-78
2023/04/22 05:40:25;;;;;;;12.30;10.17;;;;;;;;;;5111478;28;20276;-78
2023/04/22 05:42:54;;;;;;;11.23;9.43;;;;;;;;;;5111148;28;20349;-78
2023/04/22 05:45:21;;;;;;;11.33;10.13;;;;;;;;;;5111573;28;20196;-78
2023/04/22 05:47:48;;;;;;;12.50;10.53;;;;;;;;;;5111720;28;20229;-78
2023/04/22 05:50:15;;;;;;;11.70;10.40;;;;;;;;;;5111072;28;20295;-78
2023/04/22 05:52:43;;;;;;;12.17;10.30;;;;;;;;;;5111238;28;20193;-77
2023/04/22 05:55:10;;;;;;;13.97;10.87;;;;;;;;;;5110973;28;20273;-79
2023/04/22 05:57:37;;;;;;;13.13;10.90;;;;;;;;;;5111552;28;20284;-78
2023/04/22 06:00:07;;;;;;;13.17;11.20;;;;;;;;;;5111204;28;20280;-79
2023/04/22 06:02:34;;;;;;;13.27;11.23;;;;;;;;;;5111177;28;20665;-77
2023/04/22 06:05:01;;;;;;;13.30;10.63;;;;;;;;;;5110985;28;20224;-79
2023/04/22 06:07:28;;;;;;;12.57;10.13;;;;;;;;;;5111001;28;20237;-78
2023/04/22 06:09:55;;;;;;;12.53;10.47;;;;;;;;;;5110421;28;20742;-78
2023/04/22 06:12:22;;;;;;;10.87;9.77;;;;;;;;;;5101459;28;20692;-78
2023/04/22 06:14:50;;;;;;;10.73;9.63;;;;;;;;;;5102306;28;20231;-78
2023/04/22 06:17:18;;;;;;;10.37;9.27;;;;;;;;;;5094474;28;20222;-78
2023/04/22 06:19:45;;;;;;;10.30;8.43;;;;;;;;;;5094426;28;20214;-78
2023/04/22 06:22:12;;;;;;;11.00;9.70;;;;;;;;;;5094365;28;20297;-77
2023/04/22 06:24:40;;;;;;;10.87;9.43;;;;;;;;;;5094090;28;20320;-79
2023/04/22 06:27:07;;;;;;;10.50;9.37;;;;;;;;;;5114996;28;20224;-79
2023/04/22 06:29:34;;;;;;;11.50;10.30;;;;;;;;;;5113655;28;20284;-78
2023/04/22 06:32:02;;;;;;;9.93;8.97;;;;;;;;;;5114124;28;20217;-79
2023/04/22 06:34:30;;;;;;;11.00;9.43;;;;;;;;;;5114736;28;20194;-79
2023/04/22 06:36:58;;;;;;;9.70;8.80;;;;;;;;;;5114680;28;20200;-78
2023/04/22 06:39:25;;;;;;;12.93;9.23;;;;;;;;;;5114122;28;20239;-79
2023/04/22 06:41:52;;;;;;;10.40;9.30;;;;;;;;;;5114210;28;20320;-79
2023/04/22 06:44:19;;;;;;;11.13;9.27;;;;;;;;;;5114476;28;20256;-78
2023/04/22 06:46:46;;;;;;;10.33;9.33;;;;;;;;;;5114534;28;20665;-79
2023/04/22 06:49:14;;;;;;;10.33;9.33;;;;;;;;;;5114418;28;20277;-79
2023/04/22 06:51:42;;;;;;;10.27;9.27;;;;;;;;;;5114646;28;20772;-79
2023/04/22 06:54:09;;;;;;;10.00;9.00;;;;;;;;;;5114077;28;20276;-80
2023/04/22 06:56:36;;;;;;;10.00;9.03;;;;;;;;;;5114633;28;20281;-78
2023/04/22 06:59:04;;;;;;;10.53;9.17;;;;;;;;;;5113965;28;20276;-80
2023/04/22 07:01:31;;;;;;;10.57;9.57;;;;;;;;;;5113993;28;20202;-79
2023/04/22 07:03:58;;;;;;;10.20;9.20;;;;;;;;;;5113887;28;20312;-80
2023/04/22 07:06:26;;;;;;;9.97;8.97;;;;;;;;;;5113767;28;20793;-80
2023/04/22 07:08:55;;;;;;;9.80;8.80;;;;;;;;;;5113253;28;20190;-80
2023/04/22 07:11:22;;;;;;;10.10;9.07;;;;;;;;;;5113394;28;20795;-79
2023/04/22 07:13:49;;;;;;;10.00;9.00;;;;;;;;;;5113865;28;20202;-79
2023/04/22 07:16:16;;;;;;;10.57;8.97;;;;;;;;;;5113710;28;20737;-79
2023/04/22 07:18:44;;;;;;;11.80;9.60;;;;;;;;;;5113752;28;20194;-81
2023/04/22 07:21:11;;;;;;;11.47;9.10;;;;;;;;;;5113902;28;20662;-81
2023/04/22 07:23:38;;;;;;;10.47;9.13;;;;;;;;;;5112263;28;20784;-80
2023/04/22 07:26:07;;;;;;;10.43;8.73;;;;;;;;;;5113245;28;20925;-78
2023/04/22 07:28:34;;;;;;;10.13;9.07;;;;;;;;;;5113408;28;20648;-81
2023/04/22 07:31:01;;;;;;;10.13;9.13;;;;;;;;;;5113606;28;20611;-81
2023/04/22 07:33:28;;;;;;;9.97;8.97;;;;;;;;;;5113350;28;20284;-81
2023/04/22 07:35:55;;;;;;;13.50;9.37;;;;;;;;;;5113141;28;20201;-80
2023/04/22 07:38:22;;;;;;;10.17;9.17;;;;;;;;;;5112948;28;20581;-82
2023/04/22 07:40:50;;;;;;;10.10;9.07;;;;;;;;;;5111181;28;20288;-79
2023/04/22 07:43:18;;;;;;;11.27;8.83;;;;;;;;;;5113193;27;20279;-79
2023/04/22 07:45:46;;;;;;;10.43;8.77;;;;;;;;;;5110812;28;20575;-80
2023/04/22 07:48:13;;;;;;;9.87;8.90;;;;;;;;;;5109263;27;20293;-81
2023/04/22 07:50:40;;;;;;;9.50;8.50;;;;;;;;;;5111869;28;20277;-81
2023/04/22 07:53:09;;;;;;;10.53;9.10;;;;;;;;;;5110936;28;20293;-80
2023/04/22 07:55:36;;;;;;;10.10;9.07;;;;;;;;;;5107060;28;20201;-80
2023/04/22 07:58:05;;;;;;;10.30;8.73;;;;;;;;;;5110677;28;20276;-80
2023/04/22 08:00:34;;;;;;;9.90;8.90;;;;;;;;;;5112217;28;20209;-80
2023/04/22 08:03:01;;;;;;;10.10;8.87;;;;;;;;;;5111070;28;20293;-80
2023/04/22 08:05:28;;;;;;;9.43;8.43;;;;;;;;;;5107561;28;20278;-80
2023/04/22 08:07:56;;;;;;;9.80;8.80;;;;;;;;;;5108197;28;20223;-80
2023/04/22 08:10:23;;;;;;;10.30;9.23;;;;;;;;;;5111814;28;20193;-86
2023/04/22 08:12:50;;;;;;;10.20;9.20;;;;;;;;;;5108021;28;20592;-81
2023/04/22 08:15:17;;;;;;;10.60;9.60;;;;;;;;;;5112374;28;20281;-81
2023/04/22 08:17:46;;;;;;;10.97;9.87;;;;;;;;;;5112399;28;20280;-81
2023/04/22 08:20:14;;;;;;;11.40;10.23;;;;;;;;;;5105826;28;20368;-82
2023/04/22 08:22:42;;;;;;;10.23;9.23;;;;;;;;;;5112278;27;20190;-82
2023/04/22 08:25:09;;;;;;;10.57;9.57;;;;;;;;;;5107657;28;20244;-82
2023/04/22 08:27:36;;;;;;;10.00;9.00;;;;;;;;;;5114204;27;20272;-82
2023/04/22 08:30:04;;;;;;;10.00;9.00;;;;;;;;;;5111887;27;20225;-82
2023/04/22 08:32:32;;;;;;;10.00;9.10;;;;;;;;;;5110236;28;20198;-85
2023/04/22 08:35:00;;;;;;;9.77;8.77;;;;;;;;;;5111373;27;20584;-85
2023/04/22 08:37:28;;;;;;;9.60;8.70;;;;;;;;;;5113018;27;20233;-84
2023/04/22 08:39:55;;;;;;;9.45;8.55;;;;;;;;;;5103876;28;20636;-86
2023/04/22 08:42:23;;;;;;;9.98;8.50;;;;;;;;;;5113822;27;20264;-85
2023/04/22 08:44:50;;;;;;;8.85;7.97;;;;;;;;;;5107370;28;20251;-84
2023/04/22 08:47:19;;;;;;;9.18;8.27;;;;;;;;;;5113556;27;20288;-86
2023/04/22 08:49:47;;;;;;;8.93;8.02;;;;;;;;;;5111864;28;20198;-86
2023/04/22 08:52:15;;;;;;;9.40;8.50;;;;;;;;;;5111919;28;20288;-84
2023/04/22 08:54:42;;;;;;;8.85;7.97;;;;;;;;;;5112583;28;20280;-87
2023/04/22 08:57:10;;;;;;;9.75;8.57;;;;;;;;;;5111245;28;20197;-81
2023/04/22 08:59:38;;;;;;;9.60;8.70;;;;;;;;;;5116707;27;20629;-85
2023/04/22 09:02:06;;;;;;;9.65;8.82;;;;;;;;;;5107422;27;20330;-84
2023/04/22 09:04:33;;;;;;;11.23;8.50;;;;;;;;;;5108154;27;20249;-80
2023/04/22 09:07:01;;;;;;;8.57;7.75;;;;;;;;;;5108439;28;20266;-82
2023/04/22 09:09:30;;;;;;;9.73;8.82;;;;;;;;;;5111557;28;20722;-82
2023/04/22 09:11:58;;;;;;;9.45;8.20;;;;;;;;;;5111522;28;20193;-82
2023/04/22 09:14:25;;;;;;;9.55;8.55;;;;;;;;;;5111966;28;20284;-82
2023/04/22 09:16:52;;;;;;;10.40;8.40;;;;;;;;;;5111961;28;20194;-80
2023/04/22 09:19:24;;;;;;;9.70;8.80;;;;;;;;;;5111550;28;20257;-82
2023/04/22 09:21:51;;;;;;;9.77;8.88;;;;;;;;;;5111613;28;20226;-82
2023/04/22 09:24:19;;;;;;;9.45;8.55;;;;;;;;;;5111838;28;20727;-80
2023/04/22 09:26:48;;;;;;;9.95;8.90;;;;;;;;;;5112230;28;20198;-82
2023/04/22 09:29:16;;;;;;;9.90;8.98;;;;;;;;;;5111478;28;20201;-81
2023/04/22 09:31:48;;;;;;;10.75;9.65;;;;;;;;;;5112052;28;20189;-81
2023/04/22 09:34:15;;;;;;;9.27;8.45;;;;;;;;;;5111677;28;20543;-82
2023/04/22 09:36:45;;;;;;;10.23;9.18;;;;;;;;;;5112012;28;20239;-81
2023/04/22 09:39:13;;;;;;;9.90;8.90;;;;;;;;;;5111670;28;20200;-81
2023/04/22 09:41:41;;;;;;;8.93;8.13;;;;;;;;;;5111694;28;20217;-81
2023/04/22 09:44:11;;;;;;;9.43;8.40;;;;;;;;;;5111388;28;20292;-81
2023/04/22 09:46:38;;;;;;;8.73;8.02;;;;;;;;;;5111889;28;20551;-82
2023/04/22 09:49:06;;;;;;;8.55;7.65;;;;;;;;;;5115130;28;20196;-81
2023/04/22 09:51:33;;;;;;;8.85;8.10;;;;;;;;;;5115731;28;20194;-82
2023/04/22 09:54:02;;;;;;;8.30;7.60;;;;;;;;;;5115692;28;20227;-82
2023/04/22 09:56:49;;;;;;;11.00;9.95;;;;;;;;;;5115835;28;20198;-81
2023/04/22 09:59:20;;;;;;;8.95;8.15;;;;;;;;;;5116138;28;20628;-81
2023/04/22 10:01:47;;;;;;;9.38;8.32;;;;;;;;;;5115280;28;20213;-81
2023/04/22 10:04:19;;;;;;;9.13;8.30;;;;;;;;;;5115308;28;20285;-82
2023/04/22 10:06:47;;;;;;;8.50;7.78;;;;;;;;;;5115576;28;20198;-81
2023/04/22 10:09:15;;;;;;;8.60;7.80;;;;;;;;;;5115417;28;20646;-82
2023/04/22 10:11:42;;;;;;;8.85;7.95;;;;;;;;;;5115477;28;20202;-81
2023/04/22 10:14:12;;;;;;;8.70;7.80;;;;;;;;;;5115239;28;20280;-82
2023/04/22 10:16:42;;;;;;;8.15;7.35;;;;;;;;;;5115009;28;20537;-81
2023/04/22 10:19:12;;;;;;;8.15;7.45;;;;;;;;;;5115274;28;20277;-81
2023/04/22 10:21:41;;;;;;;8.05;7.28;;;;;;;;;;5115256;28;20250;-82
2023/04/22 10:24:08;;;;;;;7.82;7.05;;;;;;;;;;5114998;28;20672;-82
2023/04/22 10:26:39;;;;;;;8.02;7.22;;;;;;;;;;5115093;28;20198;-82
2023/04/22 10:29:08;;;;;;;7.30;5.85;;;;;;;;;;5115089;28;20198;-82
2023/04/22 10:31:35;;;;;;;6.32;5.72;;;;;;;;;;5115040;28;20609;-82
2023/04/22 10:34:20;;;;;;;6.50;5.90;;;;;;;;;;5114862;28;20297;-81
2023/04/22 10:37:02;;;;;;;6.50;5.90;;;;;;;;;;5114869;28;20297;-81
2023/04/22 10:39:30;;;;;;;7.25;6.60;;;;;;;;;;5114311;28;20221;-81
2023/04/22 10:41:58;;;;;;;7.32;6.35;;;;;;;;;;5114850;28;20256;-82
2023/04/22 10:44:29;;;;;;;9.23;6.93;;;;;;;;;;5114807;28;20193;-82
2023/04/22 10:46:57;;;;;;;7.45;6.70;;;;;;;;;;5114432;28;20198;-82
2023/04/22 10:49:25;;;;;;;7.60;5.85;;;;;;;;;;5114242;28;20741;-82
2023/04/22 10:51:52;;;;;;;7.20;5.32;;;;;;;;;;5114313;28;20292;-82
2023/04/22 10:54:39;;;;;;;6.55;4.80;;;;;;;;;;5114529;28;20228;-82
2023/04/22 10:57:09;;;;;;;5.07;4.55;;;;;;;;;;5114799;28;20202;-82
2023/04/22 10:59:42;;;;;;;5.38;4.60;;;;;;;;;;5112677;28;20658;-82
2023/04/22 11:02:09;;;;;;;5.30;4.82;;;;;;;;;;5114429;28;20296;-82
2023/04/22 11:04:38;;;;;;;5.53;4.97;;;;;;;;;;5114184;28;20205;-81
2023/04/22 11:07:15;;;;;;;5.53;4.82;;;;;;;;;;5114458;28;20579;-81
2023/04/22 11:09:44;;;;;;;7.70;5.40;;;;;;;;;;5114093;28;20226;-82
2023/04/22 11:12:38;;;;;;;6.45;5.00;;;;;;;;;;5114605;28;20289;-82
2023/04/22 11:15:07;;;;;;;6.97;5.18;;;;;;;;;;5093188;28;20206;-82
2023/04/22 11:17:34;;;;;;;5.50;5.00;;;;;;;;;;5093783;28;20190;-82
2023/04/22 11:20:03;;;;;;;6.18;5.57;;;;;;;;;;5093719;28;20229;-81
2023/04/22 11:22:35;;;;;;;5.10;4.60;;;;;;;;;;5093815;28;20225;-82
2023/04/22 11:25:02;;;;;;;8.32;5.53;;;;;;;;;;5093378;28;20312;-82
2023/04/22 11:27:30;;;;;;;6.38;5.13;;;;;;;;;;5093518;28;20641;-80
2023/04/22 11:30:00;;;;;;;5.75;4.80;;;;;;;;;;5093344;28;20286;-82
2023/04/22 11:32:29;;;;;;;6.50;4.78;;;;;;;;;;5093121;28;20294;-81
2023/04/22 11:34:57;;;;;;;5.78;4.20;;;;;;;;;;5093336;28;20203;-81
2023/04/22 11:37:24;;;;;;;4.50;4.10;;;;;;;;;;5093617;28;20214;-83
2023/04/22 11:39:51;;;;;;;4.60;4.05;;;;;;;;;;5093374;28;20221;-81
2023/04/22 11:42:22;;;;;;;4.68;3.80;;;;;;;;;;5093323;28;20657;-82
2023/04/22 11:44:49;;;;;;;6.82;3.67;;;;;;;;;;5092533;28;20571;-82
2023/04/22 11:47:16;;;;;;;4.38;3.65;;;;;;;;;;5092792;28;20615;-82
2023/04/22 11:49:55;;;;;;;4.50;3.08;;;;;;;;;;5092911;28;20201;-82
2023/04/22 11:52:22;;;;;;;4.82;3.50;;;;;;;;;;5092856;28;20193;-81
2023/04/22 11:54:49;;;;;;;5.05;3.33;;;;;;;;;;5092940;28;20218;-82
2023/04/22 11:57:20;;;;;;;3.25;2.50;;;;;;;;;;5092910;28;20190;-82
2023/04/22 11:59:57;;;;;;;4.45;2.58;;;;;;;;;;5092961;28;20675;-81
2023/04/22 12:02:24;;;;;;;3.88;2.33;;;;;;;;;;5092991;28;20194;-82
2023/04/22 12:04:53;;;;;;;4.25;2.58;;;;;;;;;;5092681;28;20232;-82
2023/04/22 12:07:20;;;;;;;5.38;2.80;;;;;;;;;;5092819;28;20295;-82
2023/04/22 12:09:49;;;;;;;4.00;2.28;;;;;;;;;;5092125;28;20710;-81
2023/04/22 12:12:16;;;;;;;3.38;2.03;;;;;;;;;;5092163;28;20732;-81
2023/04/22 12:14:46;;;;;;;4.25;2.08;;;;;;;;;;5110389;28;20288;-81
2023/04/22 12:17:14;;;;;;;5.50;2.53;;;;;;;;;;5113032;28;20197;-81
2023/04/22 12:19:41;;;;;;;3.22;2.17;;;;;;;;;;5112928;28;20629;-80
2023/04/22 12:22:10;;;;;;;4.97;2.13;;;;;;;;;;5112747;28;20208;-81
2023/04/22 12:24:37;;;;;;;4.97;2.08;;;;;;;;;;5112775;28;20717;-81
2023/04/22 12:27:04;;;;;;;4.28;1.90;;;;;;;;;;5112198;28;20799;-81
2023/04/22 12:29:32;;;;;;;6.45;2.20;;;;;;;;;;5112990;28;20193;-82
2023/04/22 12:31:59;;;;;;;3.35;1.88;;;;;;;;;;5112690;28;20194;-82
2023/04/22 12:34:27;;;;;;;3.05;1.60;;;;;;;;;;5112689;28;20288;-82
2023/04/22 12:36:55;;;;;;;4.18;1.60;;;;;;;;;;5112616;28;20273;-81
2023/04/22 12:39:23;;;;;;;4.25;1.70;;;;;;;;;;5112364;28;20194;-78
2023/04/22 12:41:50;;;;;;;3.47;1.58;;;;;;;;;;5112245;28;20226;-79
2023/04/22 12:44:18;;;;;;;3.20;1.50;;;;;;;;;;5112325;28;20202;-82
2023/04/22 12:46:45;;;;;;;2.80;1.50;;;;;;;;;;5111966;28;20316;-82
2023/04/22 12:49:13;;;;;;;7.63;1.85;;;;;;;;;;5112718;28;20292;-79
2023/04/22 12:51:40;;;;;;;5.28;1.80;;;;;;;;;;5112472;28;20217;-81
2023/04/22 12:54:07;;;;;;;3.67;1.83;;;;;;;;;;5112412;28;20278;-82
2023/04/22 12:56:36;;;;;;;5.57;1.80;;;;;;;;;;5112108;28;20193;-82
2023/04/22 12:59:03;;;;;;;3.72;1.60;;;;;;;;;;5112153;28;20200;-83
2023/04/22 13:01:31;;;;;;;6.22;2.17;;;;;;;;;;5111956;28;20281;-82
2023/04/22 13:03:58;;;;;;;3.90;1.77;;;;;;;;;;5112071;28;20201;-82
2023/04/22 13:06:25;;;;;;;5.53;2.10;;;;;;;;;;5111977;28;20222;-83
2023/04/22 13:08:52;;;;;;;6.00;2.00;;;;;;;;;;5112285;28;20204;-82
2023/04/22 13:11:20;;;;;;;3.20;1.80;;;;;;;;;;5111673;28;20276;-81
2023/04/22 13:13:48;;;;;;;3.65;1.90;;;;;;;;;;5112103;28;20250;-81
2023/04/22 13:16:15;;;;;;;5.53;2.03;;;;;;;;;;5112607;28;20200;-83
2023/04/22 13:18:43;;;;;;;3.13;1.42;;;;;;;;;;5111902;28;20293;-82
2023/04/22 13:21:12;;;;;;;3.72;1.33;;;;;;;;;;5111629;28;20281;-82
2023/04/22 13:23:39;;;;;;;5.00;1.65;;;;;;;;;;5111566;28;20282;-82
2023/04/22 13:26:07;;;;;;;3.58;1.50;;;;;;;;;;5111277;28;20221;-82
2023/04/22 13:28:34;;;;;;;4.55;1.48;;;;;;;;;;5111670;28;20233;-81
2023/04/22 13:31:03;;;;;;;4.60;1.40;;;;;;;;;;5111787;28;20198;-81
2023/04/22 13:33:30;;;;;;;4.53;1.25;;;;;;;;;;5111790;28;20753;-82
2023/04/22 13:35:57;;;;;;;5.60;1.33;;;;;;;;;;5111644;28;20288;-82
2023/04/22 13:38:25;;;;;;;3.85;0.95;;;;;;;;;;5111812;28;20197;-82
2023/04/22 13:40:52;;;;;;;2.53;1.00;;;;;;;;;;5111810;28;20289;-82
2023/04/22 13:43:19;;;;;;;2.90;1.13;;;;;;;;;;5111404;28;20268;-82
2023/04/22 13:45:47;;;;;;;4.40;1.00;;;;;;;;;;5111748;28;20312;-82
2023/04/22 13:48:15;;;;;;;7.07;1.20;;;;;;;;;;5111523;28;20658;-82
2023/04/22 13:50:43;;;;;;;5.50;1.15;;;;;;;;;;5111695;28;20737;-81
2023/04/22 13:53:11;;;;;;;3.75;1.02;;;;;;;;;;5111523;28;20193;-81
2023/04/22 13:55:38;;;;;;;4.25;0.95;;;;;;;;;;5111524;28;20290;-82
2023/04/22 13:58:07;;;;;;;3.72;0.95;;;;;;;;;;5111473;28;20197;-83
2023/04/22 14:00:34;;;;;;;4.80;1.30;;;;;;;;;;5111789;28;20186;-82
2023/04/22 14:03:01;;;;;;;2.65;0.98;;;;;;;;;;5111210;28;20201;-82
2023/04/22 14:05:30;;;;;;;4.03;0.98;;;;;;;;;;5111793;28;20309;-81
2023/04/22 14:07:57;;;;;;;4.82;1.00;;;;;;;;;;5111575;28;20289;-82
2023/04/22 14:10:24;;;;;;;3.15;1.00;;;;;;;;;;5111016;28;20292;-82
2023/04/22 14:12:52;;;;;;;2.05;0.70;;;;;;;;;;5111432;28;20673;-81
2023/04/22 14:15:19;;;;;;;3.03;0.88;;;;;;;;;;5111374;28;20289;-81
2023/04/22 14:17:48;;;;;;;4.40;1.10;;;;;;;;;;5111212;28;20262;-81
2023/04/22 14:20:15;;;;;;;2.30;1.05;;;;;;;;;;5111550;28;20232;-80
2023/04/22 14:22:44;;;;;;;4.47;1.17;;;;;;;;;;5110978;28;20222;-81
2023/04/22 14:25:11;;;;;;;4.90;1.20;;;;;;;;;;5111637;28;20284;-80
2023/04/22 14:27:38;;;;;;;2.70;1.15;;;;;;;;;;5111555;28;20320;-81
2023/04/22 14:30:07;;;;;;;5.07;1.50;;;;;;;;;;5111158;28;20225;-81
2023/04/22 14:32:34;;;;;;;4.15;1.25;;;;;;;;;;5111777;28;20250;-82
2023/04/22 14:35:02;;;;;;;5.68;1.30;;;;;;;;;;5114747;28;20292;-81
2023/04/22 14:37:30;;;;;;;4.60;1.00;;;;;;;;;;5114585;28;20293;-81
2023/04/22 14:39:58;;;;;;;5.07;0.98;;;;;;;;;;5114979;28;20255;-81